Time;durP1;ratioP1;P1;durP2;ratioP2;P2;SDS_P1;SDS_P2;PMS_P1;PMS_P2;Temp;Humidity;BMP_temperature;BMP_pressure;BME280_temperature;BME280_humidity;BME280_pressure;Samples;Min_cycle;Max_cycle;Signal;HPM_P1;HPM_P2
2023/04/25 00:02:28;;;;;;;5.20;2.83;;;6.20;99.90;;;;;;5155912;27;20204;-76
2023/04/25 00:04:58;;;;;;;4.37;3.10;;;6.20;99.90;;;;;;5156122;27;20230;-77
2023/04/25 00:07:27;;;;;;;3.37;2.93;;;6.20;99.90;;;;;;5152680;27;20228;-78
2023/04/25 00:09:55;;;;;;;4.23;3.10;;;6.20;99.90;;;;;;5135133;27;20205;-77
2023/04/25 00:12:23;;;;;;;4.67;3.20;;;6.10;99.90;;;;;;5134495;27;20681;-76
2023/04/25 00:14:52;;;;;;;3.30;2.83;;;6.10;99.90;;;;;;5136503;27;20209;-76
2023/04/25 00:17:21;;;;;;;4.40;2.90;;;6.10;99.90;;;;;;5148930;27;20229;-76
2023/04/25 00:19:49;;;;;;;5.50;3.23;;;6.10;99.90;;;;;;5134541;27;20209;-76
2023/04/25 00:22:19;;;;;;;4.03;2.80;;;6.10;99.90;;;;;;5134180;27;20205;-77
2023/04/25 00:24:47;;;;;;;3.27;2.93;;;6.10;99.90;;;;;;5134488;27;20209;-76
2023/04/25 00:27:15;;;;;;;4.23;3.10;;;6.00;99.90;;;;;;5134159;27;20255;-75
2023/04/25 00:29:43;;;;;;;4.10;3.13;;;6.00;99.90;;;;;;5134249;27;20212;-79
2023/04/25 00:32:11;;;;;;;3.97;2.70;;;6.00;99.90;;;;;;5133430;27;20251;-78
2023/04/25 00:34:39;;;;;;;3.90;3.10;;;6.00;99.90;;;;;;5133643;27;20663;-77
2023/04/25 00:37:08;;;;;;;5.90;2.77;;;6.00;99.90;;;;;;5153421;27;20197;-76
2023/04/25 00:39:37;;;;;;;4.83;3.10;;;6.00;99.90;;;;;;5154728;27;20204;-78
2023/04/25 00:42:06;;;;;;;4.43;3.33;;;6.10;99.90;;;;;;5153308;27;20209;-76
2023/04/25 00:44:35;;;;;;;5.27;3.20;;;6.10;99.90;;;;;;5154940;27;20204;-77
2023/04/25 00:47:03;;;;;;;3.20;2.90;;;6.10;99.90;;;;;;5154294;27;20224;-79
2023/04/25 00:49:31;;;;;;;3.90;3.10;;;6.10;99.90;;;;;;5143959;27;20301;-78
2023/04/25 00:52:00;;;;;;;3.60;2.80;;;6.10;99.90;;;;;;5133684;27;20227;-79
2023/04/25 00:54:28;;;;;;;7.47;3.10;;;6.10;99.90;;;;;;5149199;27;20222;-76
2023/04/25 00:56:58;;;;;;;3.73;3.10;;;6.20;99.90;;;;;;5154430;27;20205;-78
2023/04/25 00:59:27;;;;;;;3.90;3.20;;;6.30;99.90;;;;;;5135172;27;20283;-75
2023/04/25 01:01:55;;;;;;;6.17;3.10;;;6.30;99.90;;;;;;5133488;27;20212;-78
2023/04/25 01:04:23;;;;;;;4.33;3.00;;;6.40;99.90;;;;;;5151334;27;20654;-76
2023/04/25 01:06:52;;;;;;;5.25;3.20;;;6.40;99.90;;;;;;5150736;27;20301;-76
2023/04/25 01:09:20;;;;;;;4.27;3.07;;;6.40;99.90;;;;;;5133420;27;20201;-77
2023/04/25 01:11:49;;;;;;;4.10;2.90;;;6.40;99.90;;;;;;5132990;27;20665;-78
2023/04/25 01:14:19;;;;;;;4.97;3.07;;;6.50;99.90;;;;;;5132930;27;20244;-78
2023/04/25 01:16:48;;;;;;;5.93;3.43;;;6.40;99.90;;;;;;5149012;27;20211;-79
2023/04/25 01:19:18;;;;;;;5.07;3.00;;;6.40;99.90;;;;;;5153862;27;20208;-80
2023/04/25 01:21:48;;;;;;;3.93;3.10;;;6.40;99.90;;;;;;5154176;27;20651;-77
2023/04/25 01:24:16;;;;;;;4.90;3.00;;;6.40;99.90;;;;;;5153712;27;20583;-76
2023/04/25 01:26:49;;;;;;;5.53;3.40;;;6.40;99.90;;;;;;5133335;27;20636;-78
2023/04/25 01:29:18;;;;;;;4.30;2.93;;;6.40;99.90;;;;;;5133587;27;20220;-78
2023/04/25 01:31:46;;;;;;;3.27;2.80;;;6.40;99.90;;;;;;5133213;27;20209;-76
2023/04/25 01:34:14;;;;;;;4.00;3.00;;;6.50;99.90;;;;;;5142911;27;20208;-78
2023/04/25 01:36:44;;;;;;;4.40;3.00;;;6.50;99.90;;;;;;5133693;27;20266;-80
2023/04/25 01:39:13;;;;;;;4.90;3.13;;;6.50;99.90;;;;;;5132987;27;20205;-79
2023/04/25 01:41:42;;;;;;;5.70;2.80;;;6.50;99.90;;;;;;5133038;28;20633;-79
2023/04/25 01:44:10;;;;;;;3.53;3.00;;;6.50;99.90;;;;;;5142795;27;20655;-77
2023/04/25 01:46:38;;;;;;;5.93;3.00;;;6.40;99.90;;;;;;5153851;27;20302;-78
2023/04/25 01:49:06;;;;;;;4.83;3.30;;;6.40;99.90;;;;;;5153774;27;20243;-78
2023/04/25 01:51:34;;;;;;;4.97;3.13;;;6.30;99.90;;;;;;5154175;27;20204;-75
2023/04/25 01:54:03;;;;;;;4.63;3.03;;;6.20;99.90;;;;;;5141626;27;20312;-79
2023/04/25 01:56:33;;;;;;;4.40;2.80;;;6.10;99.90;;;;;;5137802;28;20574;-75
2023/04/25 01:59:01;;;;;;;4.73;3.03;;;6.10;99.90;;;;;;5148666;28;20261;-76
2023/04/25 02:01:29;;;;;;;4.73;3.20;;;6.10;99.90;;;;;;5134162;28;20243;-78
2023/04/25 02:03:57;;;;;;;5.57;3.37;;;5.90;99.90;;;;;;5145281;27;20204;-79
2023/04/25 02:06:25;;;;;;;5.37;3.20;;;5.90;99.90;;;;;;5153800;27;20288;-79
2023/04/25 02:08:53;;;;;;;4.37;3.23;;;5.90;99.90;;;;;;5153725;27;20311;-77
2023/04/25 02:11:21;;;;;;;6.10;3.50;;;5.80;99.90;;;;;;5151578;27;20211;-80
2023/04/25 02:13:51;;;;;;;4.30;3.07;;;5.80;99.90;;;;;;5132140;28;20216;-77
2023/04/25 02:16:20;;;;;;;4.30;3.50;;;5.70;99.90;;;;;;5132300;28;20209;-79
2023/04/25 02:18:48;;;;;;;3.80;3.23;;;5.60;99.90;;;;;;5132401;27;20584;-80
2023/04/25 02:21:16;;;;;;;5.57;3.40;;;5.60;99.90;;;;;;5132658;28;20209;-80
2023/04/25 02:23:48;;;;;;;4.50;3.13;;;5.50;99.90;;;;;;5154381;27;20207;-79
2023/04/25 02:26:17;;;;;;;4.97;3.50;;;5.50;99.90;;;;;;5162043;27;20211;-78
2023/04/25 02:28:45;;;;;;;5.57;3.40;;;5.40;99.90;;;;;;5134310;27;20230;-79
2023/04/25 02:31:14;;;;;;;5.07;3.47;;;5.40;99.90;;;;;;5132662;28;20205;-80
2023/04/25 02:33:42;;;;;;;5.13;3.43;;;5.40;99.90;;;;;;5145865;27;20215;-76
2023/04/25 02:36:11;;;;;;;4.57;3.40;;;5.40;99.90;;;;;;5144042;27;20209;-77
2023/04/25 02:38:39;;;;;;;3.43;3.13;;;5.40;99.90;;;;;;5153113;27;20279;-75
2023/04/25 02:41:07;;;;;;;4.97;3.47;;;5.30;99.90;;;;;;5162416;27;20205;-78
2023/04/25 02:43:35;;;;;;;3.97;3.27;;;5.30;99.90;;;;;;5158080;27;20201;-78
2023/04/25 02:46:04;;;;;;;4.20;3.17;;;5.30;99.90;;;;;;5143831;27;20673;-80
2023/04/25 02:48:33;;;;;;;4.83;3.50;;;5.30;99.90;;;;;;5136364;27;20225;-80
2023/04/25 02:51:01;;;;;;;5.90;3.60;;;5.30;99.90;;;;;;5136253;27;20595;-78
2023/04/25 02:53:29;;;;;;;4.57;3.73;;;5.30;99.90;;;;;;5136664;27;20324;-79
2023/04/25 02:55:58;;;;;;;5.57;3.40;;;5.30;99.90;;;;;;5154302;27;20582;-78
2023/04/25 02:58:27;;;;;;;7.23;3.83;;;5.30;99.90;;;;;;5135626;27;20218;-79
2023/04/25 03:00:55;;;;;;;5.53;3.73;;;5.30;99.90;;;;;;5135630;27;20221;-79
2023/04/25 03:03:23;;;;;;;3.97;3.40;;;5.40;99.90;;;;;;5135349;27;20235;-81
2023/04/25 03:05:53;;;;;;;4.50;3.37;;;5.30;99.90;;;;;;5135720;27;20217;-78
2023/04/25 03:08:21;;;;;;;4.40;3.70;;;5.30;99.90;;;;;;5135526;27;20237;-78
2023/04/25 03:10:50;;;;;;;4.87;3.43;;;5.30;99.90;;;;;;5135248;27;20288;-78
2023/04/25 03:13:18;;;;;;;4.50;3.30;;;5.30;99.90;;;;;;5134959;27;20205;-77
2023/04/25 03:15:46;;;;;;;6.53;3.60;;;5.40;99.90;;;;;;5135501;27;20280;-78
2023/04/25 03:18:14;;;;;;;4.63;3.50;;;5.40;99.90;;;;;;5135326;27;20202;-76
2023/04/25 03:20:42;;;;;;;4.03;3.30;;;5.50;99.90;;;;;;5133747;27;20220;-76
2023/04/25 03:23:12;;;;;;;4.80;3.30;;;5.50;99.90;;;;;;5133879;27;20202;-79
2023/04/25 03:25:40;;;;;;;3.63;3.20;;;5.60;99.90;;;;;;5133341;27;20623;-77
2023/04/25 03:28:08;;;;;;;3.60;3.17;;;5.70;99.90;;;;;;5136495;27;20217;-77
2023/04/25 03:30:36;;;;;;;4.20;3.00;;;5.70;99.90;;;;;;5135273;27;20205;-78
2023/04/25 03:33:04;;;;;;;5.00;3.40;;;5.70;99.90;;;;;;5134913;27;20547;-79
2023/04/25 03:35:32;;;;;;;3.40;2.90;;;5.80;99.90;;;;;;5134897;27;20213;-80
2023/04/25 03:38:00;;;;;;;4.00;2.93;;;5.80;99.90;;;;;;5135623;27;20564;-77
2023/04/25 03:40:29;;;;;;;5.03;3.00;;;5.90;99.90;;;;;;5135779;27;20233;-78
2023/04/25 03:42:58;;;;;;;5.10;2.73;;;6.00;99.90;;;;;;5134994;27;20216;-76
2023/04/25 03:45:26;;;;;;;5.37;2.80;;;6.00;99.90;;;;;;5135064;27;20584;-80
2023/04/25 03:47:54;;;;;;;5.17;3.20;;;6.10;99.90;;;;;;5135123;27;20205;-76
2023/04/25 03:50:22;;;;;;;6.43;2.73;;;6.20;99.90;;;;;;5134920;27;20267;-78
2023/04/25 03:52:50;;;;;;;4.03;2.97;;;6.20;99.90;;;;;;5134349;27;20678;-78
2023/04/25 03:55:19;;;;;;;4.53;3.20;;;6.30;99.90;;;;;;5135046;27;20264;-77
2023/04/25 03:57:49;;;;;;;4.83;3.00;;;6.30;99.90;;;;;;5134698;27;20202;-77
2023/04/25 04:00:17;;;;;;;4.20;2.90;;;6.30;99.90;;;;;;5134837;27;20224;-76
2023/04/25 04:02:45;;;;;;;3.90;3.10;;;6.30;99.90;;;;;;5134539;27;20205;-78
2023/04/25 04:05:13;;;;;;;5.27;2.90;;;6.30;99.90;;;;;;5134428;27;20677;-77
2023/04/25 04:07:42;;;;;;;3.67;2.90;;;6.30;99.90;;;;;;5135078;27;20215;-78
2023/04/25 04:10:11;;;;;;;5.43;3.20;;;6.30;99.90;;;;;;5136214;27;20279;-79
2023/04/25 04:12:40;;;;;;;4.93;3.57;;;6.20;99.90;;;;;;5134221;27;20511;-76
2023/04/25 04:15:10;;;;;;;5.23;3.37;;;6.20;99.90;;;;;;5134472;27;20206;-77
2023/04/25 04:17:38;;;;;;;5.83;3.73;;;6.20;99.90;;;;;;5135239;27;20209;-75
2023/04/25 04:20:08;;;;;;;5.93;3.53;;;6.10;99.90;;;;;;5134068;27;20709;-74
2023/04/25 04:22:36;;;;;;;7.80;3.60;;;6.00;99.90;;;;;;5134989;27;20304;-72
2023/04/25 04:25:06;;;;;;;4.30;3.47;;;6.00;99.90;;;;;;5137599;27;20241;-76
2023/04/25 04:27:34;;;;;;;7.37;3.70;;;6.00;99.90;;;;;;5150002;27;20206;-73
2023/04/25 04:30:03;;;;;;;5.40;3.30;;;6.00;99.90;;;;;;5156008;27;20225;-76
2023/04/25 04:32:34;;;;;;;4.87;3.07;;;6.00;99.90;;;;;;5159654;27;20208;-77
2023/04/25 04:35:03;;;;;;;3.70;3.10;;;6.10;99.90;;;;;;5154636;27;20678;-80
2023/04/25 04:37:32;;;;;;;5.70;3.30;;;6.10;99.90;;;;;;5150992;27;20201;-79
2023/04/25 04:40:04;;;;;;;3.73;3.00;;;6.20;99.90;;;;;;5134110;27;20213;-79
2023/04/25 04:42:32;;;;;;;5.43;3.17;;;6.20;99.90;;;;;;5133499;27;20209;-76
2023/04/25 04:45:01;;;;;;;5.07;3.07;;;6.30;99.90;;;;;;5134275;27;20209;-77
2023/04/25 04:47:32;;;;;;;4.77;3.00;;;6.30;99.90;;;;;;5134025;27;20206;-76
2023/04/25 04:50:01;;;;;;;3.63;2.70;;;6.30;99.90;;;;;;5134109;27;20225;-80
2023/04/25 04:52:29;;;;;;;6.17;3.13;;;6.40;99.90;;;;;;5133669;27;20240;-78
2023/04/25 04:54:57;;;;;;;4.43;2.90;;;6.40;99.90;;;;;;5138222;27;20228;-74
2023/04/25 04:57:26;;;;;;;5.87;3.10;;;6.40;99.90;;;;;;5148676;27;20216;-74
2023/04/25 04:59:54;;;;;;;8.07;2.80;;;6.40;99.90;;;;;;5147827;27;20233;-73
2023/04/25 05:02:22;;;;;;;5.70;3.33;;;6.40;99.90;;;;;;5145659;27;20204;-75
2023/04/25 05:04:51;;;;;;;7.87;3.20;;;6.40;99.90;;;;;;5138283;27;20205;-77
2023/04/25 05:07:21;;;;;;;4.33;2.90;;;6.50;99.90;;;;;;5137682;27;20571;-77
2023/04/25 05:09:48;;;;;;;5.07;2.80;;;6.60;99.90;;;;;;5133322;27;20232;-78
2023/04/25 05:12:16;;;;;;;4.60;2.70;;;6.70;99.90;;;;;;5134872;27;20209;-76
2023/04/25 05:14:45;;;;;;;4.73;2.73;;;6.70;99.90;;;;;;5155450;27;20292;-74
2023/04/25 05:17:13;;;;;;;4.97;3.00;;;6.70;99.90;;;;;;5151901;27;20236;-73
2023/04/25 05:19:41;;;;;;;4.40;2.53;;;6.80;99.90;;;;;;5152455;27;20197;-75
2023/04/25 05:22:09;;;;;;;5.33;2.60;;;6.90;99.90;;;;;;5153200;27;20212;-73
2023/04/25 05:24:38;;;;;;;5.87;2.50;;;6.90;99.90;;;;;;5154159;27;20205;-76
2023/04/25 05:27:07;;;;;;;3.30;2.20;;;7.00;99.90;;;;;;5151792;27;21239;-77
2023/04/25 05:29:35;;;;;;;3.43;2.50;;;7.00;99.90;;;;;;5154283;27;20221;-75
2023/04/25 05:32:03;;;;;;;3.63;2.30;;;7.10;99.90;;;;;;5153565;27;20216;-78
2023/04/25 05:34:31;;;;;;;3.23;2.23;;;7.10;99.90;;;;;;5150139;27;20197;-77
2023/04/25 05:37:00;;;;;;;3.07;2.17;;;7.10;99.90;;;;;;5150565;27;20284;-76
2023/04/25 05:39:28;;;;;;;3.23;2.07;;;7.10;99.90;;;;;;5153080;27;20201;-78
2023/04/25 05:41:57;;;;;;;5.03;2.57;;;7.10;99.90;;;;;;5153570;27;20228;-78
2023/04/25 05:44:26;;;;;;;4.20;2.40;;;7.20;99.90;;;;;;5154619;27;20285;-79
2023/04/25 05:46:55;;;;;;;3.20;2.20;;;7.30;99.90;;;;;;5156855;27;20196;-75
2023/04/25 05:49:23;;;;;;;2.87;2.17;;;7.30;99.90;;;;;;5163469;27;20722;-74
2023/04/25 05:51:51;;;;;;;4.70;2.10;;;7.20;99.90;;;;;;5156036;27;20635;-77
2023/04/25 05:54:19;;;;;;;4.70;2.33;;;7.20;99.90;;;;;;5150472;27;20224;-78
2023/04/25 05:56:47;;;;;;;5.57;2.30;;;7.30;99.90;;;;;;5153556;27;20217;-77
2023/04/25 05:59:17;;;;;;;2.90;2.10;;;7.30;99.90;;;;;;5150500;27;20203;-78
2023/04/25 06:01:45;;;;;;;3.67;2.13;;;7.50;99.90;;;;;;5153216;27;20232;-79
2023/04/25 06:04:13;;;;;;;4.60;2.40;;;7.50;99.90;;;;;;5150392;27;20654;-76
2023/04/25 06:06:41;;;;;;;3.60;2.30;;;7.60;99.90;;;;;;5153795;27;20242;-77
2023/04/25 06:09:10;;;;;;;6.03;2.37;;;7.70;99.90;;;;;;5150073;27;20200;-73
2023/04/25 06:11:41;;;;;;;3.77;2.47;;;7.70;99.90;;;;;;5150705;27;20578;-78
2023/04/25 06:14:09;;;;;;;5.03;2.20;;;7.70;99.90;;;;;;5156794;27;20197;-77
2023/04/25 06:16:38;;;;;;;5.43;2.50;;;7.70;99.90;;;;;;5157587;27;20211;-75
2023/04/25 06:19:06;;;;;;;4.57;2.50;;;7.70;99.90;;;;;;5157106;27;20209;-78
2023/04/25 06:21:34;;;;;;;2.97;2.10;;;7.70;99.90;;;;;;5137118;27;20201;-78
2023/04/25 06:24:02;;;;;;;2.87;2.20;;;7.70;99.90;;;;;;5137552;27;20212;-76
2023/04/25 06:26:30;;;;;;;3.93;2.20;;;7.70;99.90;;;;;;5137689;27;20212;-74
2023/04/25 06:28:58;;;;;;;3.07;2.40;;;7.70;99.90;;;;;;5153216;27;20206;-79
2023/04/25 06:31:26;;;;;;;5.10;2.83;;;7.60;99.90;;;;;;5136992;27;20229;-79
2023/04/25 06:33:56;;;;;;;5.97;2.93;;;7.50;99.90;;;;;;5136886;27;20293;-78
2023/04/25 06:36:25;;;;;;;5.10;2.73;;;7.50;99.90;;;;;;5137675;27;20601;-78
2023/04/25 06:38:53;;;;;;;5.20;2.80;;;7.30;99.90;;;;;;5157204;27;20200;-77
2023/04/25 06:41:21;;;;;;;5.73;2.93;;;7.10;99.90;;;;;;5157653;27;20343;-76
2023/04/25 06:43:49;;;;;;;5.70;2.83;;;6.90;99.90;;;;;;5157500;27;20209;-78
2023/04/25 06:46:17;;;;;;;3.87;2.57;;;6.60;99.90;;;;;;5136863;27;20209;-78
2023/04/25 06:48:45;;;;;;;7.53;2.80;;;6.50;99.90;;;;;;5136266;27;20205;-80
2023/04/25 06:51:15;;;;;;;4.77;2.80;;;6.40;99.90;;;;;;5136373;27;20222;-75
2023/04/25 06:53:43;;;;;;;5.30;2.63;;;6.30;99.90;;;;;;5151176;27;20560;-77
2023/04/25 06:56:11;;;;;;;4.80;2.80;;;6.20;99.90;;;;;;5157034;27;20211;-79
2023/04/25 06:58:39;;;;;;;6.60;3.10;;;6.10;99.90;;;;;;5156827;27;20212;-80
2023/04/25 07:01:07;;;;;;;4.77;3.10;;;6.00;99.90;;;;;;5157244;27;20428;-78
2023/04/25 07:03:37;;;;;;;4.70;2.80;;;6.00;99.90;;;;;;5139441;27;20208;-79
2023/04/25 07:06:06;;;;;;;4.73;2.90;;;6.00;99.90;;;;;;5136193;27;20568;-78
2023/04/25 07:08:36;;;;;;;6.30;2.70;;;6.00;99.90;;;;;;5136150;27;20208;-79
2023/04/25 07:11:04;;;;;;;5.40;3.20;;;6.00;99.90;;;;;;5135688;27;20225;-79
2023/04/25 07:13:32;;;;;;;5.27;3.00;;;6.00;99.90;;;;;;5135612;27;20301;-79
2023/04/25 07:16:00;;;;;;;5.47;2.90;;;5.90;99.90;;;;;;5136149;27;20305;-77
2023/04/25 07:18:29;;;;;;;5.27;3.10;;;5.90;99.90;;;;;;5136318;27;20209;-77
2023/04/25 07:20:57;;;;;;;6.60;3.43;;;5.90;99.90;;;;;;5135497;27;20205;-78
2023/04/25 07:23:25;;;;;;;8.43;3.40;;;6.00;99.90;;;;;;5135678;27;20542;-78
2023/04/25 07:25:54;;;;;;;5.50;3.27;;;6.00;99.90;;;;;;5142167;27;20207;-78
2023/04/25 07:28:24;;;;;;;7.40;3.70;;;6.10;99.90;;;;;;5156187;27;20257;-76
2023/04/25 07:30:52;;;;;;;7.40;3.60;;;6.20;99.90;;;;;;5144001;27;20231;-78
2023/04/25 07:33:21;;;;;;;4.37;3.30;;;6.40;99.90;;;;;;5135518;27;20213;-76
2023/04/25 07:35:49;;;;;;;5.80;3.23;;;6.50;99.90;;;;;;5135984;27;20217;-77
2023/04/25 07:38:18;;;;;;;7.00;3.37;;;6.50;99.90;;;;;;5136993;27;20209;-77
2023/04/25 07:40:46;;;;;;;8.67;3.60;;;6.60;99.90;;;;;;5150944;27;20331;-77
2023/04/25 07:43:16;;;;;;;5.07;3.67;;;6.70;99.90;;;;;;5155788;27;20208;-77
2023/04/25 07:45:45;;;;;;;6.53;3.37;;;6.80;99.90;;;;;;5156423;27;20280;-78
2023/04/25 07:48:18;;;;;;;4.27;3.20;;;6.90;99.90;;;;;;5155292;27;20220;-77
2023/04/25 07:50:46;;;;;;;3.83;3.17;;;7.10;99.90;;;;;;5135550;27;20696;-77
2023/04/25 07:53:14;;;;;;;6.23;3.57;;;7.30;99.90;;;;;;5134798;27;20305;-76
2023/04/25 07:55:42;;;;;;;4.43;3.50;;;7.50;99.90;;;;;;5135173;27;20207;-75
2023/04/25 07:58:12;;;;;;;5.73;3.10;;;7.70;99.90;;;;;;5138126;27;20203;-78
2023/04/25 08:00:42;;;;;;;5.10;3.23;;;7.80;99.90;;;;;;5156153;27;20209;-77
2023/04/25 08:03:11;;;;;;;8.17;3.37;;;7.90;99.90;;;;;;5156000;27;20281;-76
2023/04/25 08:05:39;;;;;;;6.57;3.40;;;8.00;99.90;;;;;;5140105;27;20213;-76
2023/04/25 08:08:08;;;;;;;6.27;3.27;;;8.20;99.90;;;;;;5134723;27;20681;-76
2023/04/25 08:10:36;;;;;;;5.77;3.20;;;8.40;99.90;;;;;;5134118;27;20237;-76
2023/04/25 08:13:04;;;;;;;5.70;2.73;;;8.60;99.90;;;;;;5134183;27;20236;-76
2023/04/25 08:15:32;;;;;;;4.37;2.80;;;8.80;99.90;;;;;;5134862;27;20326;-77
2023/04/25 08:18:01;;;;;;;4.77;2.40;;;8.90;99.90;;;;;;5134735;27;20210;-78
2023/04/25 08:20:30;;;;;;;4.60;2.50;;;9.00;99.90;;;;;;5134331;27;20205;-77
2023/04/25 08:22:58;;;;;;;3.27;2.20;;;9.40;99.90;;;;;;5134713;27;20205;-75
2023/04/25 08:25:26;;;;;;;3.40;2.33;;;9.80;99.90;;;;;;5149764;27;20228;-78
2023/04/25 08:27:54;;;;;;;3.17;2.10;;;10.40;99.90;;;;;;5155430;27;20205;-73
2023/04/25 08:30:22;;;;;;;3.67;1.90;;;12.20;99.90;;;;;;5155321;27;20213;-72
2023/04/25 08:32:50;;;;;;;2.80;1.70;;;14.20;99.90;;;;;;5155009;27;20216;-73
2023/04/25 08:35:21;;;;;;;4.70;2.00;;;16.00;99.90;;;;;;5138257;27;20240;-73
2023/04/25 08:37:50;;;;;;;3.07;2.00;;;17.10;99.90;;;;;;5133305;27;20205;-75
2023/04/25 08:40:18;;;;;;;4.60;1.60;;;18.30;99.90;;;;;;5134442;27;20212;-76
2023/04/25 08:42:48;;;;;;;3.07;1.70;;;19.50;99.90;;;;;;5138616;27;20201;-75
2023/04/25 08:45:16;;;;;;;2.55;1.65;;;19.60;99.90;;;;;;5155102;27;20228;-76
2023/04/25 08:47:48;;;;;;;4.25;2.20;;;20.10;98.00;;;;;;5155113;27;20292;-75
2023/04/25 08:50:19;;;;;;;3.72;2.03;;;19.60;96.20;;;;;;5150757;27;20308;-76
2023/04/25 08:52:52;;;;;;;3.60;1.90;;;20.00;96.70;;;;;;5133495;27;20221;-76
2023/04/25 08:55:22;;;;;;;2.70;1.83;;;20.50;94.20;;;;;;5134147;27;20506;-75
2023/04/25 08:57:51;;;;;;;3.42;1.83;;;20.70;94.80;;;;;;5138768;27;20216;-74
2023/04/25 09:00:19;;;;;;;2.85;1.70;;;19.60;91.70;;;;;;5146691;27;20278;-76
2023/04/25 09:02:48;;;;;;;2.53;1.90;;;18.50;94.70;;;;;;5137407;27;20284;-74
2023/04/25 09:05:16;;;;;;;2.83;2.00;;;18.20;97.30;;;;;;5141976;27;20259;-74
2023/04/25 09:07:49;;;;;;;2.40;1.73;;;17.10;96.70;;;;;;5133809;27;20224;-75
2023/04/25 09:10:18;;;;;;;7.37;1.80;;;16.00;99.90;;;;;;5133656;27;20297;-72
2023/04/25 09:12:53;;;;;;;2.57;2.10;;;16.30;99.90;;;;;;5133009;27;20786;-72
2023/04/25 09:15:22;;;;;;;5.03;2.10;;;15.60;99.90;;;;;;5138052;27;20220;-75
2023/04/25 09:17:56;;;;;;;5.97;4.67;;;14.40;99.90;;;;;;5138646;27;20209;-75
2023/04/25 09:20:24;;;;;;;6.60;4.23;;;13.50;99.90;;;;;;5154429;27;20591;-74
2023/04/25 09:23:04;;;;;;;6.83;3.10;;;13.10;99.90;;;;;;5154102;27;20201;-76
2023/04/25 09:25:38;;;;;;;3.83;2.40;;;13.10;99.90;;;;;;5154551;27;20545;-76
2023/04/25 09:28:07;;;;;;;3.80;2.50;;;12.60;99.90;;;;;;5136463;27;20205;-76
2023/04/25 09:30:37;;;;;;;5.00;2.30;;;12.20;99.90;;;;;;5133987;27;20209;-73
2023/04/25 09:33:06;;;;;;;2.60;2.20;;;11.80;99.90;;;;;;5137151;27;20583;-79
2023/04/25 09:35:39;;;;;;;4.27;2.60;;;11.10;99.90;;;;;;5134602;27;20217;-78
2023/04/25 09:38:14;;;;;;;3.33;2.50;;;10.50;99.90;;;;;;5133244;27;20542;-76
2023/04/25 09:40:43;;;;;;;3.43;2.50;;;10.40;99.90;;;;;;5141150;27;20201;-77
2023/04/25 09:43:21;;;;;;;3.97;2.20;;;10.70;99.90;;;;;;5154144;27;20224;-74
2023/04/25 09:45:51;;;;;;;4.83;2.97;;;11.40;99.90;;;;;;5154229;27;20219;-77
2023/04/25 09:48:20;;;;;;;2.53;2.13;;;12.00;99.90;;;;;;5153471;27;20189;-75
2023/04/25 09:51:05;;;;;;;5.67;3.20;;;13.20;99.90;;;;;;5137391;27;20201;-76
2023/04/25 09:53:36;;;;;;;5.07;2.50;;;13.70;99.90;;;;;;5132479;28;20237;-73
2023/04/25 09:56:06;;;;;;;3.37;2.33;;;13.80;99.90;;;;;;5132679;28;20201;-74
2023/04/25 09:58:36;;;;;;;3.20;2.00;;;14.60;99.90;;;;;;5133145;28;20229;-76
2023/04/25 10:01:05;;;;;;;1.90;1.70;;;14.50;99.90;;;;;;5133520;27;20785;-74
2023/04/25 10:03:35;;;;;;;2.43;1.80;;;14.90;99.90;;;;;;5133114;28;20205;-78
2023/04/25 10:06:09;;;;;;;1.93;1.63;;;15.70;99.90;;;;;;5133454;28;20210;-77
2023/04/25 10:08:40;;;;;;;3.50;1.60;;;15.70;99.90;;;;;;5133030;28;20205;-75
2023/04/25 10:11:09;;;;;;;6.03;2.00;;;15.60;99.90;;;;;;5150624;27;20245;-75
2023/04/25 10:13:37;;;;;;;2.57;1.70;;;15.10;99.90;;;;;;5153425;27;20220;-79
2023/04/25 10:16:06;;;;;;;2.37;1.83;;;14.50;99.90;;;;;;5154035;27;20287;-75
2023/04/25 10:18:34;;;;;;;2.47;1.60;;;13.80;99.90;;;;;;5153063;27;20726;-77
2023/04/25 10:21:05;;;;;;;3.83;1.93;;;13.60;99.90;;;;;;5135087;27;20241;-76
2023/04/25 10:23:34;;;;;;;2.43;1.90;;;13.30;99.90;;;;;;5153528;27;20207;-76
2023/04/25 10:26:04;;;;;;;2.93;2.10;;;13.00;99.90;;;;;;5153691;27;20205;-77
2023/04/25 10:28:58;;;;;;;2.40;2.20;;;12.80;99.90;;;;;;5136269;27;20300;-76
2023/04/25 10:31:26;;;;;;;3.03;1.90;;;12.40;99.90;;;;;;5132851;28;20662;-76
2023/04/25 10:33:55;;;;;;;3.37;2.10;;;12.30;99.90;;;;;;5132712;28;20587;-76
2023/04/25 10:36:25;;;;;;;3.37;2.03;;;13.00;99.90;;;;;;5132534;27;20217;-77
2023/04/25 10:38:54;;;;;;;2.87;1.83;;;14.50;99.90;;;;;;5132982;28;20216;-77
2023/04/25 10:41:23;;;;;;;2.90;1.80;;;15.50;99.90;;;;;;5132888;28;20201;-76
2023/04/25 10:44:01;;;;;;;2.30;1.80;;;15.20;99.90;;;;;;5132582;28;20267;-75
2023/04/25 10:46:30;;;;;;;2.63;1.87;;;15.00;99.90;;;;;;5132785;27;20255;-74
2023/04/25 10:49:00;;;;;;;1.87;1.77;;;14.40;99.90;;;;;;5132940;28;20551;-77
2023/04/25 10:51:30;;;;;;;4.13;1.97;;;14.00;99.90;;;;;;5132814;28;20269;-77
2023/04/25 10:54:19;;;;;;;2.57;1.90;;;13.60;99.90;;;;;;5133156;27;20225;-76
2023/04/25 10:56:51;;;;;;;2.97;1.90;;;13.00;99.90;;;;;;5133157;28;20206;-77
2023/04/25 10:59:21;;;;;;;2.60;1.70;;;12.70;99.90;;;;;;5133802;27;20220;-77
2023/04/25 11:01:52;;;;;;;3.30;1.80;;;12.60;99.90;;;;;;5136149;27;20229;-77
2023/04/25 11:04:22;;;;;;;2.60;1.80;;;12.80;99.90;;;;;;5136165;27;20659;-75
2023/04/25 11:07:03;;;;;;;2.00;1.80;;;13.30;99.90;;;;;;5136830;27;20201;-74
2023/04/25 11:09:51;;;;;;;2.30;1.57;;;14.10;99.90;;;;;;5137524;27;20198;-73
2023/04/25 11:12:21;;;;;;;4.33;2.00;;;15.00;99.90;;;;;;5148785;27;20220;-72
2023/04/25 11:14:49;;;;;;;3.33;1.97;;;15.00;99.90;;;;;;5160956;27;20277;-75
2023/04/25 11:17:17;;;;;;;2.77;1.90;;;14.80;99.90;;;;;;5164600;27;20775;-73
2023/04/25 11:19:49;;;;;;;3.17;2.10;;;14.00;99.90;;;;;;5159819;27;20213;-74
2023/04/25 11:22:17;;;;;;;6.93;3.17;;;13.10;99.90;;;;;;5161346;27;20201;-73
2023/04/25 11:24:46;;;;;;;14.90;9.40;;;11.80;99.90;;;;;;5158832;27;20359;-76
2023/04/25 11:27:14;;;;;;;10.63;6.80;;;10.90;99.90;;;;;;5140145;27;20273;-75
2023/04/25 11:29:44;;;;;;;5.03;3.37;;;10.20;99.90;;;;;;5137584;27;20205;-78
2023/04/25 11:32:12;;;;;;;5.00;2.10;;;9.60;99.90;;;;;;5137044;27;20213;-77
2023/04/25 11:34:45;;;;;;;4.43;1.80;;;9.10;99.90;;;;;;5136093;27;20310;-76
2023/04/25 11:37:13;;;;;;;3.03;1.70;;;8.30;99.90;;;;;;5136497;27;20201;-75
2023/04/25 11:39:45;;;;;;;2.47;1.90;;;7.80;99.90;;;;;;5135862;27;20205;-76
2023/04/25 11:42:14;;;;;;;3.87;2.53;;;7.30;99.90;;;;;;5135341;27;20288;-76
2023/04/25 11:44:42;;;;;;;3.17;2.60;;;7.10;99.90;;;;;;5135713;27;20216;-76
2023/04/25 11:47:11;;;;;;;3.37;2.50;;;7.10;99.90;;;;;;5152879;27;20601;-75
2023/04/25 11:49:40;;;;;;;2.97;2.50;;;7.10;99.90;;;;;;5155956;27;20200;-79
2023/04/25 11:52:08;;;;;;;5.00;2.90;;;7.10;99.90;;;;;;5143464;27;20296;-78
2023/04/25 11:54:37;;;;;;;3.73;3.20;;;7.20;99.90;;;;;;5135715;27;20249;-75
2023/04/25 11:57:06;;;;;;;2.77;2.50;;;7.20;99.90;;;;;;5135781;27;20209;-78
2023/04/25 11:59:34;;;;;;;2.70;2.17;;;7.20;99.90;;;;;;5135009;27;20214;-75
2023/04/25 12:02:02;;;;;;;3.30;2.30;;;7.20;99.90;;;;;;5139335;27;20209;-77
2023/04/25 12:04:33;;;;;;;3.80;2.00;;;7.20;99.90;;;;;;5157329;27;20567;-79
2023/04/25 12:07:02;;;;;;;3.13;2.33;;;7.30;99.90;;;;;;5154599;27;20200;-78
2023/04/25 12:09:32;;;;;;;3.53;2.30;;;7.20;99.90;;;;;;5155914;27;20223;-80
2023/04/25 12:12:02;;;;;;;2.47;2.20;;;7.20;99.90;;;;;;5134387;27;20724;-81
2023/04/25 12:14:32;;;;;;;2.10;1.90;;;7.30;99.90;;;;;;5134660;27;20702;-78
2023/04/25 12:17:02;;;;;;;2.33;2.13;;;7.30;99.90;;;;;;5135104;27;20289;-78
2023/04/25 12:19:35;;;;;;;2.37;2.13;;;7.40;99.90;;;;;;5147516;27;20200;-77
2023/04/25 12:22:04;;;;;;;2.50;2.30;;;7.50;99.90;;;;;;5155522;27;20287;-77
2023/04/25 12:24:35;;;;;;;4.63;2.20;;;7.70;99.90;;;;;;5155622;27;20235;-77
2023/04/25 12:27:07;;;;;;;3.23;2.23;;;7.90;99.90;;;;;;5140498;27;20646;-77
2023/04/25 12:29:36;;;;;;;2.27;2.00;;;8.00;99.90;;;;;;5134744;27;20201;-78
2023/04/25 12:32:17;;;;;;;2.47;1.80;;;7.90;99.90;;;;;;5133479;27;20213;-79
2023/04/25 12:34:47;;;;;;;1.77;1.43;;;7.60;99.90;;;;;;5134194;27;20594;-78
2023/04/25 12:37:15;;;;;;;5.00;2.10;;;7.40;99.90;;;;;;5154318;27;20288;-76
2023/04/25 12:39:43;;;;;;;3.00;2.13;;;7.30;99.90;;;;;;5157858;27;20207;-78
2023/04/25 12:42:12;;;;;;;2.93;1.70;;;7.40;99.90;;;;;;5176422;27;20211;-78
2023/04/25 12:44:40;;;;;;;1.70;1.60;;;7.40;99.90;;;;;;5173129;27;20215;-79
2023/04/25 12:47:09;;;;;;;3.20;1.97;;;7.50;99.90;;;;;;5175786;27;20208;-78
2023/04/25 12:49:38;;;;;;;3.47;2.30;;;7.70;99.90;;;;;;5183153;27;20212;-77
2023/04/25 12:52:07;;;;;;;2.10;1.90;;;7.80;99.90;;;;;;5170610;27;20256;-79
2023/04/25 12:54:35;;;;;;;2.47;1.83;;;8.10;99.90;;;;;;5173232;27;20224;-75
2023/04/25 12:57:04;;;;;;;1.80;1.70;;;8.30;99.90;;;;;;5175650;27;20211;-78
2023/04/25 12:59:33;;;;;;;2.50;1.83;;;8.60;99.90;;;;;;5175547;27;20218;-78
2023/04/25 13:02:01;;;;;;;2.30;1.80;;;8.90;99.90;;;;;;5158065;27;20205;-77
2023/04/25 13:04:29;;;;;;;2.60;2.13;;;8.90;99.90;;;;;;5154773;27;20224;-78
2023/04/25 13:06:58;;;;;;;2.07;1.87;;;9.30;99.90;;;;;;5154458;27;20678;-78